Maersk Walvis Bay — 3FWS9 — position and weather

sailwx.info

Track history (hours):
 
Tides and Currents Weather Stations Pressure Air Temp Water Temp Dewpoint Dewpoint Depression Visibility Wind Speed Wind Dir Waves Ship Positions

Maersk Walvis Bay

Last reported at 2018-Feb-23 00:58 UTC. Time now 2018-Feb-23 06:15 UTC.
Position N 09°32' W 079°49'.

Length 172 m; draft 9.1 m.

Type: Ship. MMSI: 355480000.

Date/timePositionNaut miles runAvg speedWind from/ knotsBaromVisibWave heightAir tempDewpointWater temp
2018-Feb-23 00:58N 09°32' W 079°49'716.3
2018-Feb-23 00:30N 09°26' W 079°53'3 6.9
2018-Feb-23 00:00N 09°22' W 079°53'0 0.1
2018-Feb-22 23:29N 09°22' W 079°53'0 0.0
2018-Feb-22 22:59N 09°22' W 079°53'0 0.0
2018-Feb-22 22:29N 09°22' W 079°53'0 0.0
2018-Feb-22 21:59N 09°22' W 079°53'0 0.0
2018-Feb-22 21:29N 09°22' W 079°53'0 0.0
2018-Feb-22 20:59N 09°22' W 079°53'0 0.0
2018-Feb-22 20:29N 09°22' W 079°53'0 0.0
2018-Feb-22 19:59N 09°22' W 079°53'0 0.0
2018-Feb-22 19:29N 09°22' W 079°53'0 0.0
2018-Feb-22 18:59N 09°22' W 079°53'0 0.0
2018-Feb-22 18:29N 09°22' W 079°53'0 0.0
2018-Feb-22 17:59N 09°22' W 079°53'0 0.0
2018-Feb-22 17:29N 09°22' W 079°53'0 0.0
2018-Feb-22 16:59N 09°22' W 079°53'0 0.1
2018-Feb-22 16:29N 09°22' W 079°53'0 0.0
2018-Feb-22 15:59N 09°22' W 079°53'0 0.0
2018-Feb-22 15:29N 09°22' W 079°53'0 0.0
2018-Feb-22 14:59N 09°22' W 079°53'0 0.0
2018-Feb-22 14:29N 09°22' W 079°53'0 0.0
2018-Feb-22 13:59N 09°22' W 079°53'0 0.0
2018-Feb-22 13:29N 09°22' W 079°53'0 0.0
2018-Feb-22 12:59N 09°22' W 079°53'0 0.0
2018-Feb-22 12:29N 09°22' W 079°53'0 0.0
2018-Feb-22 11:59N 09°22' W 079°53'0 0.0
2018-Feb-22 11:29N 09°22' W 079°53'0 0.0
2018-Feb-22 10:59N 09°22' W 079°53'0 0.0
2018-Feb-22 10:29N 09°22' W 079°53'0 0.0
2018-Feb-22 09:59N 09°22' W 079°53'0 0.0
2018-Feb-22 09:29N 09°22' W 079°53'0 0.0
2018-Feb-22 08:59N 09°22' W 079°53'0 0.0
2018-Feb-22 08:29N 09°22' W 079°53'0 0.0
2018-Feb-22 07:59N 09°22' W 079°53'0 1.0
2018-Feb-22 07:30N 09°22' W 079°53'0 0.2
2018-Feb-22 07:00N 09°22' W 079°53'0 0.0
2018-Feb-22 06:30N 09°22' W 079°53'0 0.0
2018-Feb-22 06:00N 09°22' W 079°53'0 0.0
2018-Feb-22 05:30N 09°22' W 079°53'0 0.0
2018-Feb-22 05:00N 09°22' W 079°53'0 0.0
2018-Feb-22 04:30N 09°22' W 079°53'0 0.0
2018-Feb-22 04:00N 09°22' W 079°53'0 0.0
2018-Feb-22 03:30N 09°22' W 079°53'0 0.0
2018-Feb-22 03:00N 09°22' W 079°53'0 0.0
2018-Feb-22 02:30N 09°22' W 079°53'0 0.0
2018-Feb-22 02:00N 09°22' W 079°53'0 0.0
2018-Feb-22 01:30N 09°22' W 079°53'0 0.0
2018-Feb-22 01:00N 09°22' W 079°53'0 0.0
2018-Feb-22 00:30N 09°22' W 079°53'0 0.0
2018-Feb-22 00:00N 09°22' W 079°53'0 0.0
2018-Feb-21 23:30N 09°22' W 079°53'0 0.0
2018-Feb-21 23:00N 09°22' W 079°53'0 0.0
2018-Feb-21 22:30N 09°22' W 079°53'0 0.0
2018-Feb-21 22:00N 09°22' W 079°53'0 0.0
2018-Feb-21 21:30N 09°22' W 079°53'0 0.0
2018-Feb-21 21:00N 09°22' W 079°53'0 0.0
2018-Feb-21 20:30N 09°22' W 079°53'0 0.0
2018-Feb-21 20:00N 09°22' W 079°53'0 0.0
2018-Feb-21 19:30N 09°22' W 079°53'0 0.0
2018-Feb-21 19:00N 09°22' W 079°53'0 0.0
2018-Feb-21 18:30N 09°22' W 079°53'30110.1
2018-Feb-20 12:36N 11°10' W 075°07'219.9
2018-Feb-20 12:30N 11°11' W 075°05'51 2.9
2018-Feb-19 18:57N 11°15' W 074°13'1 2.6
2018-Feb-19 18:30N 11°15' W 074°14'5 6.0
2018-Feb-19 17:40N 11°15' W 074°19'4 9.4
2018-Feb-19 17:16N 11°16' W 074°23'3 9.5
2018-Feb-19 16:59N 11°17' W 074°26'2 1.2
2018-Feb-19 15:14N 11°19' W 074°26'2 9.3
2018-Feb-19 14:59N 11°17' W 074°27'5 9.8
2018-Feb-19 14:30N 11°13' W 074°30'5 9.3
2018-Feb-19 13:59N 11°12' W 074°35'611.1
2018-Feb-19 13:29N 11°12' W 074°40'611.9
2018-Feb-19 12:59N 11°11' W 074°46'612.1
2018-Feb-19 12:30N 11°11' W 074°52'4 9.0
2018-Feb-19 12:00N 11°06' W 074°51'611.7
2018-Feb-19 11:29N 11°01' W 074°47'4 7.6
2018-Feb-19 11:00N 10°58' W 074°46'0 0.0
2018-Feb-19 10:30N 10°58' W 074°46'0 0.0
2018-Feb-19 10:00N 10°58' W 074°46'0 0.0
2018-Feb-19 09:30N 10°58' W 074°46'0 0.0
2018-Feb-19 09:00N 10°58' W 074°46'0 0.0
2018-Feb-19 08:24N 10°58' W 074°46'0 0.0
2018-Feb-19 08:00N 10°58' W 074°46'0 0.0
2018-Feb-19 07:30N 10°58' W 074°46'0 0.0
2018-Feb-19 07:00N 10°58' W 074°46'0 0.0
2018-Feb-19 06:30N 10°58' W 074°46'0 0.0
2018-Feb-19 06:00N 10°58' W 074°46'0 0.0
2018-Feb-19 05:30N 10°58' W 074°46'0 0.0
2018-Feb-19 05:00N 10°58' W 074°46'0 0.0
2018-Feb-19 04:30N 10°58' W 074°46'0 0.0
2018-Feb-19 04:00N 10°58' W 074°46'0 0.0
2018-Feb-19 03:30N 10°58' W 074°46'0 0.0
2018-Feb-19 03:00N 10°58' W 074°46'0 0.0
2018-Feb-19 02:30N 10°58' W 074°46'0 0.0
2018-Feb-19 02:00N 10°58' W 074°46'0 0.0
2018-Feb-19 01:30N 10°58' W 074°46'0 0.0
2018-Feb-19 01:00N 10°58' W 074°46'0 0.0
2018-Feb-19 00:30N 10°58' W 074°46'0 0.0
2018-Feb-19 00:00N 10°58' W 074°46'0 0.0
2018-Feb-18 23:27N 10°58' W 074°46'0 0.0
2018-Feb-18 22:51N 10°58' W 074°46'0 0.0
2018-Feb-18 22:18N 10°58' W 074°46'0 0.0
2018-Feb-18 18:42N 10°58' W 074°46'0 0.0
2018-Feb-18 15:12N 10°58' W 074°46'0 0.1
2018-Feb-18 14:44N 10°58' W 074°46'0 1.7
2018-Feb-18 14:30N 10°59' W 074°45'4 7.7
2018-Feb-18 13:59N 11°02' W 074°48'4 8.5
2018-Feb-18 13:30N 11°05' W 074°51'4 7.2
2018-Feb-18 12:59N 11°08' W 074°53'3 5.2
2018-Feb-18 12:30N 11°07' W 074°56'56 1.7
2018-Feb-17 03:06N 10°24' W 075°32'0 0.0
2018-Feb-17 02:48N 10°24' W 075°32'0 0.9
2018-Feb-17 02:30N 10°24' W 075°32'0 0.1
2018-Feb-16 22:37N 10°24' W 075°32'0 0.0
2018-Feb-16 19:34N 10°24' W 075°32'0 0.9
2018-Feb-16 19:26N 10°24' W 075°32'9 6.0
2018-Feb-16 17:55N 10°19' W 075°40'3 7.4
2018-Feb-16 17:30N 10°20' W 075°43'4 8.3
2018-Feb-16 17:00N 10°24' W 075°45'611.8
2018-Feb-16 16:30N 10°29' W 075°44'611.1
2018-Feb-16 15:57N 10°36' W 075°43'1010.8
2018-Feb-16 15:03N 10°45' W 075°40'111.3
2018-Feb-16 14:57N 10°46' W 075°40'1111.8
2018-Feb-16 14:03N 10°55' W 075°34'112.1
2018-Feb-16 13:59N 10°55' W 075°33'1212.2
2018-Feb-16 12:59N 11°03' W 075°24'613.1
2018-Feb-16 12:29N 11°06' W 075°18'812.9
2018-Feb-16 11:51N 11°09' W 075°10'413.1
2018-Feb-16 11:30N 11°11' W 075°06'  
Track history (hours):
 
Tides and Currents Weather Stations Pressure Air Temp Water Temp Dewpoint Dewpoint Depression Visibility Wind Speed Wind Dir Waves Ship Positions

Maersk Walvis Bay

Last reported at 2018-Feb-23 00:58 UTC. Time now 2018-Feb-23 06:15 UTC.
Position N 09°32' W 079°49'.

Length 172 m; draft 9.1 m.

Type: Ship. MMSI: 355480000.

Date/timePositionNaut miles runAvg speedWind from/ knotsBaromVisibWave heightAir tempDewpointWater temp
2018-Feb-23 00:58N 09°32' W 079°49'716.3
2018-Feb-23 00:30N 09°26' W 079°53'3 6.9
2018-Feb-23 00:00N 09°22' W 079°53'0 0.1
2018-Feb-22 23:29N 09°22' W 079°53'0 0.0
2018-Feb-22 22:59N 09°22' W 079°53'0 0.0
2018-Feb-22 22:29N 09°22' W 079°53'0 0.0
2018-Feb-22 21:59N 09°22' W 079°53'0 0.0
2018-Feb-22 21:29N 09°22' W 079°53'0 0.0
2018-Feb-22 20:59N 09°22' W 079°53'0 0.0
2018-Feb-22 20:29N 09°22' W 079°53'0 0.0
2018-Feb-22 19:59N 09°22' W 079°53'0 0.0
2018-Feb-22 19:29N 09°22' W 079°53'0 0.0
2018-Feb-22 18:59N 09°22' W 079°53'0 0.0
2018-Feb-22 18:29N 09°22' W 079°53'0 0.0
2018-Feb-22 17:59N 09°22' W 079°53'0 0.0
2018-Feb-22 17:29N 09°22' W 079°53'0 0.0
2018-Feb-22 16:59N 09°22' W 079°53'0 0.1
2018-Feb-22 16:29N 09°22' W 079°53'0 0.0
2018-Feb-22 15:59N 09°22' W 079°53'0 0.0
2018-Feb-22 15:29N 09°22' W 079°53'0 0.0
2018-Feb-22 14:59N 09°22' W 079°53'0 0.0
2018-Feb-22 14:29N 09°22' W 079°53'0 0.0
2018-Feb-22 13:59N 09°22' W 079°53'0 0.0
2018-Feb-22 13:29N 09°22' W 079°53'0 0.0
2018-Feb-22 12:59N 09°22' W 079°53'0 0.0
2018-Feb-22 12:29N 09°22' W 079°53'0 0.0
2018-Feb-22 11:59N 09°22' W 079°53'0 0.0
2018-Feb-22 11:29N 09°22' W 079°53'0 0.0
2018-Feb-22 10:59N 09°22' W 079°53'0 0.0
2018-Feb-22 10:29N 09°22' W 079°53'0 0.0
2018-Feb-22 09:59N 09°22' W 079°53'0 0.0
2018-Feb-22 09:29N 09°22' W 079°53'0 0.0
2018-Feb-22 08:59N 09°22' W 079°53'0 0.0
2018-Feb-22 08:29N 09°22' W 079°53'0 0.0
2018-Feb-22 07:59N 09°22' W 079°53'0 1.0
2018-Feb-22 07:30N 09°22' W 079°53'0 0.2
2018-Feb-22 07:00N 09°22' W 079°53'0 0.0
2018-Feb-22 06:30N 09°22' W 079°53'0 0.0
2018-Feb-22 06:00N 09°22' W 079°53'0 0.0
2018-Feb-22 05:30N 09°22' W 079°53'0 0.0
2018-Feb-22 05:00N 09°22' W 079°53'0 0.0
2018-Feb-22 04:30N 09°22' W 079°53'0 0.0
2018-Feb-22 04:00N 09°22' W 079°53'0 0.0
2018-Feb-22 03:30N 09°22' W 079°53'0 0.0
2018-Feb-22 03:00N 09°22' W 079°53'0 0.0
2018-Feb-22 02:30N 09°22' W 079°53'0 0.0
2018-Feb-22 02:00N 09°22' W 079°53'0 0.0
2018-Feb-22 01:30N 09°22' W 079°53'0 0.0
2018-Feb-22 01:00N 09°22' W 079°53'0 0.0
2018-Feb-22 00:30N 09°22' W 079°53'0 0.0
2018-Feb-22 00:00N 09°22' W 079°53'0 0.0
2018-Feb-21 23:30N 09°22' W 079°53'0 0.0
2018-Feb-21 23:00N 09°22' W 079°53'0 0.0
2018-Feb-21 22:30N 09°22' W 079°53'0 0.0
2018-Feb-21 22:00N 09°22' W 079°53'0 0.0
2018-Feb-21 21:30N 09°22' W 079°53'0 0.0
2018-Feb-21 21:00N 09°22' W 079°53'0 0.0
2018-Feb-21 20:30N 09°22' W 079°53'0 0.0
2018-Feb-21 20:00N 09°22' W 079°53'0 0.0
2018-Feb-21 19:30N 09°22' W 079°53'0 0.0
2018-Feb-21 19:00N 09°22' W 079°53'0 0.0
2018-Feb-21 18:30N 09°22' W 079°53'30110.1
2018-Feb-20 12:36N 11°10' W 075°07'219.9
2018-Feb-20 12:30N 11°11' W 075°05'51 2.9
2018-Feb-19 18:57N 11°15' W 074°13'1 2.6
2018-Feb-19 18:30N 11°15' W 074°14'5 6.0
2018-Feb-19 17:40N 11°15' W 074°19'4 9.4
2018-Feb-19 17:16N 11°16' W 074°23'3 9.5
2018-Feb-19 16:59N 11°17' W 074°26'2 1.2
2018-Feb-19 15:14N 11°19' W 074°26'2 9.3
2018-Feb-19 14:59N 11°17' W 074°27'5 9.8
2018-Feb-19 14:30N 11°13' W 074°30'5 9.3
2018-Feb-19 13:59N 11°12' W 074°35'611.1
2018-Feb-19 13:29N 11°12' W 074°40'611.9
2018-Feb-19 12:59N 11°11' W 074°46'612.1
2018-Feb-19 12:30N 11°11' W 074°52'4 9.0
2018-Feb-19 12:00N 11°06' W 074°51'611.7
2018-Feb-19 11:29N 11°01' W 074°47'4 7.6
2018-Feb-19 11:00N 10°58' W 074°46'0 0.0
2018-Feb-19 10:30N 10°58' W 074°46'0 0.0
2018-Feb-19 10:00N 10°58' W 074°46'0 0.0
2018-Feb-19 09:30N 10°58' W 074°46'0 0.0
2018-Feb-19 09:00N 10°58' W 074°46'0 0.0
2018-Feb-19 08:24N 10°58' W 074°46'0 0.0
2018-Feb-19 08:00N 10°58' W 074°46'0 0.0
2018-Feb-19 07:30N 10°58' W 074°46'0 0.0
2018-Feb-19 07:00N 10°58' W 074°46'0 0.0
2018-Feb-19 06:30N 10°58' W 074°46'0 0.0
2018-Feb-19 06:00N 10°58' W 074°46'0 0.0
2018-Feb-19 05:30N 10°58' W 074°46'0 0.0
2018-Feb-19 05:00N 10°58' W 074°46'0 0.0
2018-Feb-19 04:30N 10°58' W 074°46'0 0.0
2018-Feb-19 04:00N 10°58' W 074°46'0 0.0
2018-Feb-19 03:30N 10°58' W 074°46'0 0.0
2018-Feb-19 03:00N 10°58' W 074°46'0 0.0
2018-Feb-19 02:30N 10°58' W 074°46'0 0.0
2018-Feb-19 02:00N 10°58' W 074°46'0 0.0
2018-Feb-19 01:30N 10°58' W 074°46'0 0.0
2018-Feb-19 01:00N 10°58' W 074°46'0 0.0
2018-Feb-19 00:30N 10°58' W 074°46'0 0.0
2018-Feb-19 00:00N 10°58' W 074°46'0 0.0
2018-Feb-18 23:27N 10°58' W 074°46'0 0.0
2018-Feb-18 22:51N 10°58' W 074°46'0 0.0
2018-Feb-18 22:18N 10°58' W 074°46'0 0.0
2018-Feb-18 18:42N 10°58' W 074°46'0 0.0
2018-Feb-18 15:12N 10°58' W 074°46'0 0.1
2018-Feb-18 14:44N 10°58' W 074°46'0 1.7
2018-Feb-18 14:30N 10°59' W 074°45'4 7.7
2018-Feb-18 13:59N 11°02' W 074°48'4 8.5
2018-Feb-18 13:30N 11°05' W 074°51'4 7.2
2018-Feb-18 12:59N 11°08' W 074°53'3 5.2
2018-Feb-18 12:30N 11°07' W 074°56'56 1.7
2018-Feb-17 03:06N 10°24' W 075°32'0 0.0
2018-Feb-17 02:48N 10°24' W 075°32'0 0.9
2018-Feb-17 02:30N 10°24' W 075°32'0 0.1
2018-Feb-16 22:37N 10°24' W 075°32'0 0.0
2018-Feb-16 19:34N 10°24' W 075°32'0 0.9
2018-Feb-16 19:26N 10°24' W 075°32'9 6.0
2018-Feb-16 17:55N 10°19' W 075°40'3 7.4
2018-Feb-16 17:30N 10°20' W 075°43'4 8.3
2018-Feb-16 17:00N 10°24' W 075°45'611.8
2018-Feb-16 16:30N 10°29' W 075°44'611.1
2018-Feb-16 15:57N 10°36' W 075°43'1010.8
2018-Feb-16 15:03N 10°45' W 075°40'111.3
2018-Feb-16 14:57N 10°46' W 075°40'1111.8
2018-Feb-16 14:03N 10°55' W 075°34'112.1
2018-Feb-16 13:59N 10°55' W 075°33'1212.2
2018-Feb-16 12:59N 11°03' W 075°24'613.1
2018-Feb-16 12:29N 11°06' W 075°18'812.9
2018-Feb-16 11:51N 11°09' W 075°10'413.1
2018-Feb-16 11:30N 11°11' W 075°06'  

Dump ship's entire track history